Time;durP1;ratioP1;P1;durP2;ratioP2;P2;SDS_P1;SDS_P2;PMS_P1;PMS_P2;Temp;Humidity;BMP_temperature;BMP_pressure;BME280_temperature;BME280_humidity;BME280_pressure;Samples;Min_cycle;Max_cycle;Signal;HPM_P1;HPM_P2
2023/09/21 00:00:19;;;;;;;12.75;6.72;;;16.80;99.90;;;;;;5075191;28;20033;-65
2023/09/21 00:02:50;;;;;;;16.80;8.82;;;16.70;99.90;;;;;;5075250;28;20032;-64
2023/09/21 00:05:23;;;;;;;12.85;7.30;;;16.70;99.90;;;;;;5075157;28;20021;-64
2023/09/21 00:07:49;;;;;;;12.80;7.57;;;16.80;99.90;;;;;;5074395;28;20024;-64
2023/09/21 00:10:15;;;;;;;15.95;7.20;;;16.80;99.90;;;;;;5075240;28;20081;-64
2023/09/21 00:12:42;;;;;;;13.65;6.55;;;16.80;99.90;;;;;;5074980;28;20024;-64
2023/09/21 00:15:09;;;;;;;12.32;7.20;;;16.80;99.90;;;;;;5074943;28;20027;-65
2023/09/21 00:17:36;;;;;;;13.63;6.68;;;16.80;99.90;;;;;;5073724;28;20074;-64
2023/09/21 00:20:10;;;;;;;19.27;8.63;;;16.80;99.90;;;;;;5074856;28;20025;-64
2023/09/21 00:22:37;;;;;;;12.38;7.47;;;16.70;99.90;;;;;;5073623;28;20029;-64
2023/09/21 00:25:04;;;;;;;12.77;7.32;;;16.80;99.90;;;;;;5073516;28;20066;-64
2023/09/21 00:27:30;;;;;;;13.75;7.82;;;16.80;99.90;;;;;;5073376;28;20028;-65
2023/09/21 00:29:56;;;;;;;18.45;7.53;;;16.80;99.90;;;;;;5074604;28;20055;-64
2023/09/21 00:32:21;;;;;;;12.02;7.88;;;16.80;99.90;;;;;;5074487;28;20051;-64
2023/09/21 00:34:50;;;;;;;13.02;7.18;;;16.90;99.90;;;;;;5069879;28;20128;-64
2023/09/21 00:37:17;;;;;;;;;;;16.90;99.90;;;;;;5055018;28;20025;-64
2023/09/21 00:39:42;;;;;;;16.05;7.55;;;16.90;99.90;;;;;;5053822;28;19915;-64
2023/09/21 00:42:08;;;;;;;11.18;6.88;;;16.90;99.90;;;;;;5036779;28;20029;-64
2023/09/21 00:44:34;;;;;;;10.93;6.72;;;16.90;99.90;;;;;;5054543;28;20021;-65
2023/09/21 00:47:00;;;;;;;13.07;6.72;;;16.90;99.90;;;;;;5036545;28;20525;-64
2023/09/21 00:49:27;;;;;;;9.80;6.60;;;16.90;99.90;;;;;;5036624;28;20384;-66
2023/09/21 00:51:56;;;;;;;15.23;7.40;;;16.80;99.90;;;;;;5056101;28;20420;-68
2023/09/21 00:54:24;;;;;;;9.75;7.28;;;16.80;99.90;;;;;;5057301;28;20017;-66
2023/09/21 00:56:52;;;;;;;12.40;7.03;;;16.80;99.90;;;;;;5039003;28;20064;-65
2023/09/21 00:59:19;;;;;;;11.48;6.55;;;16.70;99.90;;;;;;5055851;28;20061;-64
2023/09/21 01:01:46;;;;;;;13.25;7.30;;;16.70;99.90;;;;;;5054908;28;20036;-65
2023/09/21 01:04:13;;;;;;;13.90;7.18;;;16.80;99.90;;;;;;5054184;28;20036;-64
2023/09/21 01:06:39;;;;;;;10.95;6.93;;;16.80;99.90;;;;;;5053836;28;20469;-64
2023/09/21 01:09:06;;;;;;;19.25;6.95;;;16.70;99.90;;;;;;5036031;28;20029;-64
2023/09/21 01:11:36;;;;;;;12.20;7.13;;;16.70;99.90;;;;;;5053594;28;20548;-64
2023/09/21 01:14:03;;;;;;;12.57;7.50;;;16.70;99.90;;;;;;5054229;28;20025;-64
2023/09/21 01:16:30;;;;;;;16.75;8.25;;;16.80;99.90;;;;;;5053940;28;20107;-64
2023/09/21 01:18:56;;;;;;;17.02;7.40;;;16.80;99.90;;;;;;5053719;28;20121;-64
2023/09/21 01:21:37;;;;;;;14.05;7.70;;;16.80;99.90;;;;;;5036150;28;20112;-64
2023/09/21 01:24:03;;;;;;;14.50;8.15;;;16.90;99.90;;;;;;5053710;28;20021;-64
2023/09/21 01:26:29;;;;;;;12.63;7.18;;;17.00;99.90;;;;;;5053713;28;20143;-64
2023/09/21 01:28:56;;;;;;;13.70;7.60;;;17.10;99.90;;;;;;5053815;28;20047;-64
2023/09/21 01:31:22;;;;;;;14.07;7.88;;;17.10;99.90;;;;;;5053716;28;20021;-64
2023/09/21 01:33:48;;;;;;;12.55;7.30;;;17.10;99.90;;;;;;5053732;28;20029;-64
2023/09/21 01:36:14;;;;;;;13.77;6.82;;;17.10;99.90;;;;;;5054381;28;20092;-64
2023/09/21 01:38:44;;;;;;;14.85;7.25;;;17.10;99.90;;;;;;5035726;28;20120;-65
2023/09/21 01:41:09;;;;;;;;;;;17.10;99.90;;;;;;5054467;28;20060;-64
2023/09/21 01:43:35;;;;;;;12.55;7.15;;;17.10;99.90;;;;;;5054188;28;19905;-64
2023/09/21 01:46:01;;;;;;;20.48;9.35;;;17.10;99.90;;;;;;5054070;28;20108;-64
2023/09/21 01:48:27;;;;;;;12.82;7.07;;;17.10;99.90;;;;;;5053938;28;20036;-64
2023/09/21 01:50:57;;;;;;;14.85;7.80;;;17.20;99.90;;;;;;5054825;28;20032;-64
2023/09/21 01:53:24;;;;;;;16.90;7.95;;;17.10;99.90;;;;;;5039878;28;20029;-65
2023/09/21 01:55:51;;;;;;;10.52;7.15;;;17.10;99.90;;;;;;5057970;28;20025;-64
2023/09/21 01:58:19;;;;;;;24.02;8.27;;;17.10;99.90;;;;;;5057831;28;20043;-64
2023/09/21 02:00:49;;;;;;;13.95;8.50;;;17.10;99.90;;;;;;5041195;28;20112;-64
2023/09/21 02:03:19;;;;;;;12.77;7.97;;;17.10;99.90;;;;;;5040488;28;20116;-65
2023/09/21 02:05:48;;;;;;;14.15;7.75;;;17.20;99.90;;;;;;5040376;28;20067;-65
2023/09/21 02:08:19;;;;;;;12.10;7.63;;;17.10;99.90;;;;;;5059065;28;20029;-65
2023/09/21 02:10:46;;;;;;;13.65;8.57;;;17.20;99.90;;;;;;5067809;28;20525;-65
2023/09/21 02:13:12;;;;;;;14.20;7.95;;;17.10;99.90;;;;;;5050494;28;20035;-65
2023/09/21 02:15:38;;;;;;;15.82;8.38;;;17.10;99.90;;;;;;5070362;28;20057;-65
2023/09/21 02:18:05;;;;;;;13.57;8.57;;;17.10;99.90;;;;;;5070953;28;20103;-65
2023/09/21 02:20:34;;;;;;;14.15;8.20;;;17.10;99.90;;;;;;5062728;28;20091;-64
2023/09/21 02:23:02;;;;;;;18.98;8.63;;;17.10;99.90;;;;;;5040356;28;20032;-64
2023/09/21 02:25:30;;;;;;;17.45;8.35;;;17.10;99.90;;;;;;5057372;28;20036;-64
2023/09/21 02:27:57;;;;;;;17.60;8.80;;;17.10;99.90;;;;;;5057138;28;20025;-65
2023/09/21 02:30:23;;;;;;;17.75;9.02;;;17.10;99.90;;;;;;5057000;28;20142;-64
2023/09/21 02:32:51;;;;;;;20.77;9.43;;;17.20;99.90;;;;;;5056651;28;20039;-64
2023/09/21 02:35:23;;;;;;;21.08;10.55;;;17.10;99.90;;;;;;5056712;28;20053;-64
2023/09/21 02:37:50;;;;;;;13.98;8.93;;;17.10;99.90;;;;;;5039674;28;20123;-64
2023/09/21 02:40:19;;;;;;;15.48;9.10;;;17.10;99.90;;;;;;5056324;28;20047;-64
2023/09/21 02:42:49;;;;;;;17.65;9.32;;;17.20;99.90;;;;;;5039199;28;20389;-64
2023/09/21 02:45:16;;;;;;;15.77;9.00;;;17.20;99.90;;;;;;5056610;28;20036;-64
2023/09/21 02:47:42;;;;;;;14.00;9.60;;;17.30;99.90;;;;;;5056282;28;20457;-65
2023/09/21 02:50:16;;;;;;;15.50;8.23;;;17.30;99.90;;;;;;5056192;28;20473;-64
2023/09/21 02:52:47;;;;;;;13.32;9.32;;;17.30;99.90;;;;;;5056576;28;20029;-64
2023/09/21 02:55:20;;;;;;;15.18;9.45;;;17.30;99.90;;;;;;5039029;28;20029;-64
2023/09/21 02:57:48;;;;;;;12.30;8.90;;;17.30;99.90;;;;;;5056592;28;20025;-64
2023/09/21 03:00:25;;;;;;;14.50;9.03;;;17.30;99.90;;;;;;5056753;28;20159;-64
2023/09/21 03:02:51;;;;;;;19.77;9.70;;;17.40;99.90;;;;;;5055781;28;20337;-64
2023/09/21 03:05:17;;;;;;;17.58;10.85;;;17.40;99.90;;;;;;5038059;28;20037;-64
2023/09/21 03:07:44;;;;;;;16.50;9.63;;;17.40;99.90;;;;;;5056238;28;20029;-64
2023/09/21 03:10:12;;;;;;;17.17;9.32;;;17.40;99.90;;;;;;5055834;28;20029;-64
2023/09/21 03:12:38;;;;;;;14.40;10.48;;;17.40;99.90;;;;;;5038187;28;20437;-64
2023/09/21 03:15:07;;;;;;;14.80;10.18;;;17.40;99.90;;;;;;5037815;28;20029;-64
2023/09/21 03:17:34;;;;;;;;;;;17.50;99.90;;;;;;5056435;28;20052;-64
2023/09/21 03:20:13;;;;;;;14.40;10.20;;;17.50;99.90;;;;;;5037980;28;19916;-64
2023/09/21 03:22:41;;;;;;;19.15;11.40;;;17.50;99.90;;;;;;5038066;28;20037;-64
2023/09/21 03:25:11;;;;;;;18.37;10.90;;;17.50;99.90;;;;;;5055909;28;20498;-64
2023/09/21 03:27:40;;;;;;;15.80;11.80;;;17.50;99.90;;;;;;5055854;28;20255;-65
2023/09/21 03:30:10;;;;;;;17.08;12.88;;;17.50;99.90;;;;;;5037974;28;20033;-64
2023/09/21 03:32:38;;;;;;;14.23;11.65;;;17.50;99.90;;;;;;5055692;28;20029;-65
2023/09/21 03:35:06;;;;;;;16.17;11.57;;;17.50;99.90;;;;;;5048251;28;20052;-64
2023/09/21 03:37:31;;;;;;;18.55;11.90;;;17.50;99.90;;;;;;5075644;28;20028;-64
2023/09/21 03:39:57;;;;;;;18.10;12.48;;;17.50;99.90;;;;;;5075372;28;20025;-64
2023/09/21 03:42:23;;;;;;;17.08;12.20;;;17.50;99.90;;;;;;5075370;28;20078;-64
2023/09/21 03:44:49;;;;;;;16.85;13.10;;;17.50;99.90;;;;;;5075519;28;20475;-64
2023/09/21 03:47:17;;;;;;;19.75;13.57;;;17.50;99.90;;;;;;5075658;28;20081;-64
2023/09/21 03:49:44;;;;;;;19.35;12.82;;;17.50;99.90;;;;;;5075098;28;20461;-64
2023/09/21 03:52:15;;;;;;;21.15;14.15;;;17.50;99.90;;;;;;5075899;28;20024;-65
2023/09/21 03:54:42;;;;;;;20.30;12.82;;;17.50;99.90;;;;;;5074291;28;20031;-65
2023/09/21 03:57:11;;;;;;;24.40;14.02;;;17.50;99.90;;;;;;5074724;28;20026;-65
2023/09/21 03:59:37;;;;;;;16.17;13.15;;;17.50;99.90;;;;;;5075054;28;20035;-64
2023/09/21 04:02:03;;;;;;;23.40;13.73;;;17.50;99.90;;;;;;5075062;28;20460;-64
2023/09/21 04:04:31;;;;;;;16.77;13.18;;;17.50;99.90;;;;;;5074867;28;20025;-64
2023/09/21 04:06:57;;;;;;;20.15;13.48;;;17.40;99.90;;;;;;5074947;28;20390;-64
2023/09/21 04:09:22;;;;;;;19.90;13.90;;;17.40;99.90;;;;;;5075191;28;20028;-58
2023/09/21 04:11:48;;;;;;;22.10;12.75;;;17.40;99.90;;;;;;5073607;28;20024;-58
2023/09/21 04:14:14;;;;;;;18.17;13.43;;;17.50;99.90;;;;;;5072672;28;20024;-57
2023/09/21 04:16:39;;;;;;;18.92;12.73;;;17.50;99.90;;;;;;5073444;28;20056;-58
2023/09/21 04:19:10;;;;;;;22.55;12.35;;;17.60;99.90;;;;;;5074591;28;20029;-58
2023/09/21 04:21:36;;;;;;;24.23;13.68;;;17.60;99.90;;;;;;5073759;28;20457;-58
2023/09/21 04:24:02;;;;;;;16.02;12.43;;;17.70;99.90;;;;;;5074873;28;20419;-64
2023/09/21 04:26:28;;;;;;;20.55;12.13;;;17.60;99.90;;;;;;5074900;28;20055;-64
2023/09/21 04:28:55;;;;;;;16.45;11.73;;;17.60;99.90;;;;;;5074527;28;20024;-64
2023/09/21 04:31:21;;;;;;;16.50;12.38;;;17.60;99.90;;;;;;5073529;28;20429;-64
2023/09/21 04:33:47;;;;;;;22.10;12.80;;;17.50;99.90;;;;;;5073103;28;20026;-64
2023/09/21 04:36:13;;;;;;;16.50;12.38;;;17.50;99.90;;;;;;5057698;28;20040;-64
2023/09/21 04:38:38;;;;;;;18.55;12.75;;;17.50;99.90;;;;;;5054262;28;20037;-64
2023/09/21 04:41:04;;;;;;;15.70;12.25;;;17.50;99.90;;;;;;5054336;28;20074;-64
2023/09/21 04:43:32;;;;;;;20.95;13.50;;;17.50;99.90;;;;;;5036499;28;20025;-65
2023/09/21 04:46:02;;;;;;;15.55;13.15;;;17.40;99.90;;;;;;5054284;28;20021;-64
2023/09/21 04:48:28;;;;;;;16.33;12.75;;;17.40;99.90;;;;;;5054806;28;20095;-64
2023/09/21 04:50:53;;;;;;;18.90;13.02;;;17.40;99.90;;;;;;5036441;28;20025;-64
2023/09/21 04:53:19;;;;;;;20.15;13.93;;;17.40;99.90;;;;;;5054043;28;20103;-64
2023/09/21 04:55:46;;;;;;;22.65;13.23;;;17.40;99.90;;;;;;5036143;28;20032;-64
2023/09/21 04:58:11;;;;;;;17.85;12.75;;;17.30;99.90;;;;;;5054062;28;20025;-65
2023/09/21 05:00:37;;;;;;;19.90;12.15;;;17.30;99.90;;;;;;5053970;28;20029;-65
2023/09/21 05:03:03;;;;;;;21.92;12.80;;;17.30;99.90;;;;;;5036035;28;20475;-65
2023/09/21 05:05:28;;;;;;;19.80;12.63;;;17.30;99.90;;;;;;5053720;28;20111;-65
2023/09/21 05:07:54;;;;;;;19.75;12.52;;;17.30;99.90;;;;;;5036102;28;20032;-64
2023/09/21 05:10:19;;;;;;;15.90;11.82;;;17.30;99.90;;;;;;5036253;28;20055;-64
2023/09/21 05:12:48;;;;;;;15.95;11.35;;;17.30;99.90;;;;;;5054657;28;20057;-65
2023/09/21 05:15:15;;;;;;;18.25;11.82;;;17.30;99.90;;;;;;5036512;28;20111;-66
2023/09/21 05:17:41;;;;;;;16.67;10.70;;;17.40;99.90;;;;;;5037036;28;20527;-65
2023/09/21 05:20:10;;;;;;;15.73;10.95;;;17.30;99.90;;;;;;5056511;28;20040;-65
2023/09/21 05:22:39;;;;;;;14.02;11.23;;;17.40;99.90;;;;;;5057844;28;20029;-65
2023/09/21 05:25:05;;;;;;;21.25;12.23;;;17.40;99.90;;;;;;5057191;28;20025;-65
2023/09/21 05:27:31;;;;;;;18.05;11.50;;;17.50;99.90;;;;;;5055975;28;20033;-65
2023/09/21 05:30:04;;;;;;;18.58;12.43;;;17.40;99.90;;;;;;5053702;28;20029;-65
2023/09/21 05:32:32;;;;;;;18.67;12.30;;;17.50;99.90;;;;;;5053985;28;20032;-64
2023/09/21 05:35:01;;;;;;;17.23;12.25;;;17.50;99.90;;;;;;5044284;28;20139;-65
2023/09/21 05:37:26;;;;;;;20.23;11.93;;;17.50;99.90;;;;;;5073563;28;20021;-64
2023/09/21 05:39:52;;;;;;;18.90;11.95;;;17.50;99.90;;;;;;5073090;28;20078;-64
2023/09/21 05:42:18;;;;;;;16.20;11.98;;;17.50;99.90;;;;;;5073594;28;20033;-65
2023/09/21 05:44:44;;;;;;;22.48;12.98;;;17.50;99.90;;;;;;5073257;28;20025;-64
2023/09/21 05:47:10;;;;;;;15.35;12.10;;;17.50;99.90;;;;;;5071954;28;20094;-64
2023/09/21 05:49:36;;;;;;;15.50;12.48;;;17.50;99.90;;;;;;5073408;28;20028;-65
2023/09/21 05:52:08;;;;;;;17.38;11.70;;;17.40;99.90;;;;;;5071953;28;20024;-65
2023/09/21 05:54:35;;;;;;;18.60;11.38;;;17.50;99.90;;;;;;5072146;28;20025;-65
2023/09/21 05:57:03;;;;;;;15.63;11.10;;;17.50;99.90;;;;;;5073413;28;20021;-65
2023/09/21 05:59:31;;;;;;;19.10;11.27;;;17.50;99.90;;;;;;5073439;28;20036;-65
2023/09/21 06:01:57;;;;;;;18.98;10.93;;;17.50;99.90;;;;;;5073510;28;20024;-64
2023/09/21 06:04:24;;;;;;;15.57;11.77;;;17.50;99.90;;;;;;5073530;28;20579;-64
2023/09/21 06:06:51;;;;;;;16.25;11.27;;;17.50;99.90;;;;;;5073317;28;20028;-64
2023/09/21 06:09:21;;;;;;;15.35;11.82;;;17.40;99.90;;;;;;5073326;28;20040;-64
2023/09/21 06:11:48;;;;;;;17.75;10.88;;;17.50;99.90;;;;;;5072748;28;20384;-64
2023/09/21 06:14:15;;;;;;;12.80;10.68;;;17.50;99.90;;;;;;5071843;28;20033;-65
2023/09/21 06:16:44;;;;;;;20.55;10.35;;;17.50;99.90;;;;;;5073442;28;20028;-64
2023/09/21 06:19:11;;;;;;;15.93;10.80;;;17.50;99.90;;;;;;5073329;28;20040;-65
2023/09/21 06:21:37;;;;;;;11.25;9.70;;;17.60;99.90;;;;;;5073169;28;20086;-65
2023/09/21 06:24:04;;;;;;;16.73;10.48;;;17.60;99.90;;;;;;5073378;28;20480;-64
2023/09/21 06:26:30;;;;;;;14.55;10.70;;;17.60;99.90;;;;;;5071853;28;20064;-65
2023/09/21 06:28:56;;;;;;;17.67;9.80;;;17.70;99.90;;;;;;5073214;28;20035;-64
2023/09/21 06:31:22;;;;;;;14.18;9.75;;;17.70;99.90;;;;;;5073128;28;20083;-64
2023/09/21 06:33:48;;;;;;;16.02;9.50;;;17.70;99.90;;;;;;5073120;28;20384;-65
2023/09/21 06:36:20;;;;;;;13.52;8.75;;;17.70;99.90;;;;;;5056713;28;20081;-64
2023/09/21 06:38:53;;;;;;;12.05;9.02;;;17.80;99.90;;;;;;5056842;28;20366;-65
2023/09/21 06:41:20;;;;;;;12.05;8.95;;;17.80;99.90;;;;;;5056617;28;20021;-65
2023/09/21 06:43:46;;;;;;;12.55;8.85;;;17.80;99.90;;;;;;5038890;28;20071;-65
2023/09/21 06:46:12;;;;;;;12.02;8.85;;;17.90;99.90;;;;;;5057089;28;20408;-65
2023/09/21 06:48:41;;;;;;;10.40;8.50;;;17.90;99.90;;;;;;5056760;28;20029;-65
2023/09/21 06:51:10;;;;;;;13.20;8.77;;;18.00;99.90;;;;;;5056578;28;20108;-65
2023/09/21 06:53:36;;;;;;;18.50;8.52;;;18.00;99.90;;;;;;5038628;28;20025;-65
2023/09/21 06:56:02;;;;;;;13.05;9.07;;;18.00;99.90;;;;;;5038268;28;20039;-65
2023/09/21 06:58:30;;;;;;;13.38;8.55;;;18.10;99.90;;;;;;5056448;28;20025;-64
2023/09/21 07:00:59;;;;;;;10.27;8.38;;;18.10;99.90;;;;;;5056357;28;20120;-65
2023/09/21 07:03:25;;;;;;;;;;;18.10;99.90;;;;;;5056667;28;20053;-65
2023/09/21 07:05:51;;;;;;;11.65;7.07;;;18.20;99.90;;;;;;5056373;28;19940;-65
2023/09/21 07:08:36;;;;;;;13.52;7.78;;;18.20;99.90;;;;;;5038444;28;20025;-65
2023/09/21 07:11:02;;;;;;;12.48;6.78;;;18.30;99.90;;;;;;5056553;28;20488;-65
2023/09/21 07:13:29;;;;;;;10.38;7.00;;;18.40;99.90;;;;;;5056295;28;20100;-65
2023/09/21 07:15:55;;;;;;;10.02;6.40;;;18.50;99.90;;;;;;5038252;28;20028;-65
2023/09/21 07:18:21;;;;;;;10.13;6.15;;;18.60;99.90;;;;;;5055817;28;20025;-65
2023/09/21 07:20:47;;;;;;;7.13;5.63;;;18.70;99.90;;;;;;5055889;28;20047;-65
2023/09/21 07:23:13;;;;;;;10.15;6.40;;;18.80;99.90;;;;;;5055710;28;20029;-65
2023/09/21 07:25:38;;;;;;;10.30;5.88;;;18.90;99.90;;;;;;5055834;28;20068;-65
2023/09/21 07:28:05;;;;;;;13.15;6.80;;;19.10;99.90;;;;;;5055842;28;20032;-65
2023/09/21 07:30:34;;;;;;;6.90;5.22;;;19.30;99.90;;;;;;5055735;28;20029;-65
2023/09/21 07:33:02;;;;;;;9.13;5.05;;;19.40;99.90;;;;;;5038244;28;20029;-63
2023/09/21 07:35:28;;;;;;;13.45;5.93;;;19.60;99.90;;;;;;5055591;28;20049;-64
2023/09/21 07:37:54;;;;;;;6.78;4.90;;;19.80;99.90;;;;;;5055807;28;20029;-65
2023/09/21 07:40:21;;;;;;;11.00;4.88;;;20.00;99.90;;;;;;5037482;28;20036;-65
2023/09/21 07:42:51;;;;;;;8.15;4.80;;;20.30;99.90;;;;;;5055480;28;20025;-65
2023/09/21 07:45:16;;;;;;;7.78;4.38;;;20.60;99.90;;;;;;5055451;28;20130;-63
2023/09/21 07:47:45;;;;;;;6.70;3.72;;;21.10;99.90;;;;;;5054770;28;20481;-63
2023/09/21 07:50:11;;;;;;;;;;;21.70;99.90;;;;;;5037389;28;20483;-65
2023/09/21 07:52:37;;;;;;;9.13;4.10;;;22.40;99.90;;;;;;5055389;28;19917;-65
2023/09/21 07:55:04;;;;;;;6.25;3.65;;;23.20;99.90;;;;;;5037864;28;20160;-63
2023/09/21 07:57:34;;;;;;;9.13;3.90;;;23.70;99.90;;;;;;5055138;28;20455;-63
2023/09/21 08:00:00;;;;;;;5.97;3.22;;;24.40;99.90;;;;;;5055155;28;20033;-63
2023/09/21 08:02:27;;;;;;;7.60;3.72;;;24.80;99.90;;;;;;5055193;28;20033;-63
2023/09/21 08:04:54;;;;;;;5.63;3.00;;;25.20;99.90;;;;;;5055301;28;20018;-63
2023/09/21 08:07:25;;;;;;;4.43;2.97;;;25.80;99.90;;;;;;5055049;28;20465;-63
2023/09/21 08:09:52;;;;;;;7.68;3.53;;;26.10;99.90;;;;;;5055073;28;20021;-63
2023/09/21 08:12:17;;;;;;;4.75;2.63;;;26.50;99.90;;;;;;5037136;28;20119;-63
2023/09/21 08:14:43;;;;;;;6.13;3.30;;;26.30;99.30;;;;;;5054671;28;20108;-63
2023/09/21 08:17:10;;;;;;;4.05;2.65;;;26.40;99.20;;;;;;5054956;28;20055;-63
2023/09/21 08:19:37;;;;;;;5.95;3.30;;;26.50;98.80;;;;;;5036728;28;20116;-63
2023/09/21 08:22:03;;;;;;;5.22;2.45;;;26.70;98.60;;;;;;5054827;28;20036;-63
2023/09/21 08:24:29;;;;;;;6.13;3.33;;;27.00;97.90;;;;;;5055003;28;20044;-63
2023/09/21 08:26:54;;;;;;;6.80;3.10;;;27.30;96.60;;;;;;5054775;28;20375;-63
2023/09/21 08:29:21;;;;;;;3.83;2.92;;;26.80;96.70;;;;;;5055754;28;20064;-63
2023/09/21 08:31:47;;;;;;;5.88;2.63;;;26.80;97.30;;;;;;5055265;28;20021;-63
2023/09/21 08:34:13;;;;;;;8.23;2.83;;;27.00;96.80;;;;;;5055320;28;20037;-63
2023/09/21 08:36:40;;;;;;;4.45;2.50;;;27.10;96.60;;;;;;5054617;28;20516;-63
2023/09/21 08:39:07;;;;;;;7.80;2.88;;;27.30;96.40;;;;;;5036568;28;20029;-63
2023/09/21 08:41:35;;;;;;;7.10;2.92;;;27.50;95.90;;;;;;5036553;28;20029;-63
2023/09/21 08:44:04;;;;;;;6.18;2.50;;;27.60;95.50;;;;;;5054760;28;20527;-63
2023/09/21 08:46:31;;;;;;;6.55;2.53;;;27.80;94.70;;;;;;5036494;28;20025;-65
2023/09/21 08:48:59;;;;;;;8.95;3.13;;;28.00;94.70;;;;;;5054913;28;20095;-63
2023/09/21 08:51:26;;;;;;;7.65;2.50;;;28.50;93.80;;;;;;5054431;28;20029;-63
2023/09/21 08:53:54;;;;;;;3.92;2.00;;;29.30;92.20;;;;;;5054519;28;20036;-64
2023/09/21 08:56:21;;;;;;;8.32;2.60;;;29.90;90.50;;;;;;5054337;28;20075;-66
2023/09/21 08:58:50;;;;;;;6.80;2.60;;;30.20;89.90;;;;;;5036285;28;20112;-66
2023/09/21 09:01:17;;;;;;;4.82;2.50;;;30.80;87.60;;;;;;5054289;28;20033;-66
2023/09/21 09:03:43;;;;;;;3.50;2.08;;;31.00;85.00;;;;;;5054086;28;20029;-63
2023/09/21 09:06:09;;;;;;;6.22;2.83;;;31.30;82.90;;;;;;5054304;28;20032;-63
2023/09/21 09:08:35;;;;;;;5.50;2.55;;;31.10;82.00;;;;;;5036526;28;20033;-63
2023/09/21 09:11:00;;;;;;;6.13;2.35;;;30.80;80.60;;;;;;5054203;28;20020;-64
2023/09/21 09:13:33;;;;;;;5.57;1.98;;;31.00;80.40;;;;;;5036173;28;20483;-65
2023/09/21 09:15:59;;;;;;;6.40;2.15;;;31.20;78.70;;;;;;5054131;28;20385;-64
2023/09/21 09:18:27;;;;;;;5.30;2.25;;;31.10;78.70;;;;;;5036246;28;20103;-64
2023/09/21 09:20:54;;;;;;;5.78;2.47;;;31.20;77.70;;;;;;5053915;28;20040;-64
2023/09/21 09:23:21;;;;;;;3.53;2.28;;;30.80;76.30;;;;;;5036088;28;20499;-66
2023/09/21 09:25:49;;;;;;;3.20;1.92;;;30.40;78.40;;;;;;5053672;28;20021;-64
2023/09/21 09:28:18;;;;;;;7.13;2.65;;;30.30;77.70;;;;;;5053996;28;20480;-65
2023/09/21 09:30:45;;;;;;;5.72;1.80;;;30.70;78.00;;;;;;5054100;28;20377;-64
2023/09/21 09:33:15;;;;;;;4.78;2.25;;;30.30;77.80;;;;;;5053897;28;20056;-64
2023/09/21 09:35:41;;;;;;;7.38;2.70;;;30.60;77.30;;;;;;5053490;28;20045;-64
2023/09/21 09:38:11;;;;;;;4.63;1.92;;;31.00;77.00;;;;;;5035967;28;20029;-64
2023/09/21 09:40:37;;;;;;;7.45;2.20;;;31.00;76.50;;;;;;5053726;28;20091;-65
2023/09/21 09:43:07;;;;;;;6.53;2.17;;;31.80;75.00;;;;;;5053729;28;20112;-64
2023/09/21 09:45:37;;;;;;;3.85;1.70;;;32.50;72.90;;;;;;5053650;28;20033;-64
2023/09/21 09:48:12;;;;;;;4.35;2.25;;;32.70;70.20;;;;;;5036113;28;20532;-65
2023/09/21 09:50:41;;;;;;;5.00;1.83;;;32.40;69.80;;;;;;5057182;28;20040;-64
2023/09/21 09:53:13;;;;;;;5.45;1.63;;;31.70;71.40;;;;;;5063974;28;20029;-64
2023/09/21 09:55:42;;;;;;;4.35;1.60;;;31.60;70.10;;;;;;5044057;28;20036;-64
2023/09/21 09:58:08;;;;;;;5.55;1.92;;;31.60;69.10;;;;;;5044727;28;20476;-64
2023/09/21 10:00:35;;;;;;;3.53;1.45;;;31.20;68.80;;;;;;5059666;28;20033;-64
2023/09/21 10:03:03;;;;;;;2.72;1.45;;;32.00;67.40;;;;;;5036142;28;20049;-64
2023/09/21 10:05:36;;;;;;;6.65;2.13;;;31.80;66.50;;;;;;5053229;28;20102;-64
2023/09/21 10:08:03;;;;;;;3.47;1.80;;;32.00;67.20;;;;;;5053347;28;20108;-65
2023/09/21 10:10:56;;;;;;;3.10;1.33;;;33.20;64.50;;;;;;5053336;28;20102;-64
2023/09/21 10:13:26;;;;;;;11.60;2.00;;;33.60;62.20;;;;;;5035989;28;20087;-66
2023/09/21 10:16:01;;;;;;;3.67;1.50;;;33.90;61.90;;;;;;5039706;28;20079;-65
2023/09/21 10:18:38;;;;;;;2.53;1.38;;;33.80;60.10;;;;;;5057563;28;20029;-66
2023/09/21 10:21:12;;;;;;;1.70;1.38;;;34.10;60.30;;;;;;5042125;28;20033;-64
2023/09/21 10:23:37;;;;;;;6.15;1.63;;;33.70;59.30;;;;;;5057822;28;20091;-64
2023/09/21 10:26:04;;;;;;;3.17;1.25;;;33.70;59.60;;;;;;5057081;28;20021;-66
2023/09/21 10:28:34;;;;;;;2.28;1.45;;;33.90;59.40;;;;;;5041115;28;20022;-65
2023/09/21 10:31:06;;;;;;;4.93;1.60;;;33.90;58.50;;;;;;5060482;28;20021;-64
2023/09/21 10:33:36;;;;;;;2.38;1.27;;;33.40;57.80;;;;;;5044856;28;20025;-66
2023/09/21 10:36:02;;;;;;;1.50;1.30;;;33.40;57.20;;;;;;5069737;28;20056;-64
2023/09/21 10:38:27;;;;;;;3.15;1.45;;;33.20;58.20;;;;;;5078672;28;20028;-65
2023/09/21 10:40:53;;;;;;;3.17;1.05;;;33.10;57.90;;;;;;5075577;28;20043;-65
2023/09/21 10:43:37;;;;;;;7.82;1.40;;;32.60;58.30;;;;;;5076773;28;20029;-65
2023/09/21 10:46:21;;;;;;;1.75;1.08;;;32.30;58.50;;;;;;5076319;28;20082;-66
2023/09/21 10:49:14;;;;;;;4.03;1.40;;;32.30;58.80;;;;;;5076787;28;20044;-64
2023/09/21 10:51:40;;;;;;;4.28;2.05;;;31.90;59.80;;;;;;5066389;28;20032;-64
2023/09/21 10:54:13;;;;;;;3.55;1.15;;;32.60;59.50;;;;;;5075176;28;20032;-64
2023/09/21 10:56:41;;;;;;;3.85;1.50;;;33.00;58.20;;;;;;5075858;28;20028;-64
2023/09/21 10:59:08;;;;;;;3.97;1.40;;;33.60;58.00;;;;;;5076617;28;20111;-64
2023/09/21 11:01:35;;;;;;;5.78;1.50;;;34.00;57.00;;;;;;5074990;28;20036;-64
2023/09/21 11:04:02;;;;;;;3.40;1.33;;;33.90;56.20;;;;;;5076301;28;20067;-64
2023/09/21 11:06:28;;;;;;;3.38;1.33;;;33.50;57.20;;;;;;5076318;28;20029;-64
2023/09/21 11:08:55;;;;;;;2.20;1.30;;;33.80;57.30;;;;;;5076515;28;20107;-65
2023/09/21 11:11:21;;;;;;;3.47;1.95;;;33.90;56.50;;;;;;5075118;28;20029;-64
2023/09/21 11:13:54;;;;;;;5.78;1.17;;;34.30;55.90;;;;;;5074831;28;20033;-64
2023/09/21 11:16:21;;;;;;;4.07;1.98;;;34.20;55.30;;;;;;5074898;28;20082;-64
2023/09/21 11:18:53;;;;;;;4.28;1.75;;;34.30;55.00;;;;;;5076095;28;20070;-64
2023/09/21 11:21:21;;;;;;;3.42;1.10;;;34.40;54.50;;;;;;5075935;28;20094;-64
2023/09/21 11:23:49;;;;;;;3.22;1.15;;;34.00;54.80;;;;;;5075489;28;20549;-66
2023/09/21 11:26:15;;;;;;;2.15;1.00;;;34.20;55.10;;;;;;5074714;28;20051;-64
2023/09/21 11:28:42;;;;;;;4.50;1.17;;;33.90;54.60;;;;;;5075860;28;20029;-65
2023/09/21 11:31:08;;;;;;;3.08;1.30;;;34.50;53.70;;;;;;5075898;28;20111;-65
2023/09/21 11:33:37;;;;;;;2.63;1.17;;;34.90;52.30;;;;;;5075790;28;20104;-66
2023/09/21 11:36:04;;;;;;;2.78;1.60;;;34.70;52.20;;;;;;5060567;28;20052;-66
2023/09/21 11:38:33;;;;;;;2.72;1.27;;;34.80;52.60;;;;;;5055741;28;20484;-67
2023/09/21 11:40:59;;;;;;;2.47;1.30;;;35.10;51.60;;;;;;5037655;28;20037;-66
2023/09/21 11:43:25;;;;;;;4.22;1.05;;;35.90;50.60;;;;;;5055783;28;20102;-66
2023/09/21 11:45:52;;;;;;;1.90;1.30;;;35.30;51.10;;;;;;5038014;28;20115;-66
2023/09/21 11:48:21;;;;;;;3.88;1.25;;;34.60;51.60;;;;;;5037368;28;20041;-66
2023/09/21 11:50:48;;;;;;;3.58;1.10;;;33.90;51.80;;;;;;5055827;28;20553;-65
2023/09/21 11:53:16;;;;;;;3.60;1.10;;;33.20;52.30;;;;;;5037766;28;20381;-66
2023/09/21 11:55:43;;;;;;;;;;;33.10;52.60;;;;;;5055733;28;20372;-66
2023/09/21 11:58:09;;;;;;;2.08;1.05;;;32.80;53.60;;;;;;5037438;28;19954;-66
2023/09/21 12:00:44;;;;;;;2.83;1.30;;;32.50;54.30;;;;;;5054891;28;20029;-66
2023/09/21 12:03:20;;;;;;;3.97;1.13;;;31.90;54.20;;;;;;5037860;28;20078;-66
2023/09/21 12:05:45;;;;;;;2.92;0.98;;;32.00;54.10;;;;;;5055448;28;20029;-65
2023/09/21 12:08:15;;;;;;;1.35;1.10;;;33.50;52.40;;;;;;5054809;28;20029;-64
2023/09/21 12:10:45;;;;;;;1.88;1.08;;;33.90;51.70;;;;;;5054850;28;20040;-66
2023/09/21 12:13:11;;;;;;;2.25;1.17;;;34.70;51.50;;;;;;5037218;28;20025;-65
2023/09/21 12:15:38;;;;;;;7.32;1.40;;;34.90;50.30;;;;;;5037192;28;20028;-66
2023/09/21 12:18:05;;;;;;;1.52;0.82;;;34.90;49.40;;;;;;5036939;28;20465;-66
2023/09/21 12:20:31;;;;;;;2.40;1.33;;;35.00;50.60;;;;;;5054594;28;20037;-66
2023/09/21 12:22:57;;;;;;;3.72;1.00;;;35.50;49.10;;;;;;5036925;28;20039;-66
2023/09/21 12:25:24;;;;;;;5.35;1.20;;;35.20;49.50;;;;;;5054653;28;20107;-66
2023/09/21 12:27:50;;;;;;;2.25;0.98;;;35.70;49.90;;;;;;5037257;28;20056;-66
2023/09/21 12:30:17;;;;;;;2.08;1.13;;;36.50;49.30;;;;;;5054396;28;20052;-67
2023/09/21 12:32:43;;;;;;;2.90;1.17;;;36.30;47.50;;;;;;5054898;28;20104;-67
2023/09/21 12:35:10;;;;;;;7.90;1.50;;;36.10;48.50;;;;;;5047500;28;20048;-59
2023/09/21 12:37:37;;;;;;;4.63;1.10;;;35.90;51.90;;;;;;5073230;28;20372;-59
2023/09/21 12:40:11;;;;;;;6.95;1.00;;;35.60;50.10;;;;;;5073140;28;20095;-59
2023/09/21 12:42:39;;;;;;;3.20;1.33;;;35.20;50.30;;;;;;5074414;28;20031;-58